Time;durP1;ratioP1;P1;durP2;ratioP2;P2;SDS_P1;SDS_P2;PMS_P1;PMS_P2;Temp;Humidity;BMP_temperature;BMP_pressure;BME280_temperature;BME280_humidity;BME280_pressure;Samples;Min_cycle;Max_cycle;Signal;HPM_P1;HPM_P2
2023/01/29 00:03:24;;;;;;;8.80;8.10;;;4.50;94.30;;;;;;10573576;28;20230;-77
2023/01/29 00:08:26;;;;;;;9.43;8.70;;;4.50;94.20;;;;;;10575824;28;20677;-77
2023/01/29 00:13:29;;;;;;;9.73;8.85;;;4.60;94.10;;;;;;10551560;28;20226;-77
2023/01/29 00:18:31;;;;;;;9.80;9.00;;;4.80;93.90;;;;;;10552854;28;20234;-77
2023/01/29 00:23:33;;;;;;;8.87;8.17;;;4.80;93.90;;;;;;10578291;28;20215;-77
2023/01/29 00:28:37;;;;;;;8.90;8.30;;;4.70;93.50;;;;;;10558153;28;20622;-77
2023/01/29 00:33:40;;;;;;;10.20;9.40;;;4.60;93.80;;;;;;10546529;28;20673;-76
2023/01/29 00:38:43;;;;;;;10.20;9.40;;;4.50;93.80;;;;;;10560658;28;20194;-77
2023/01/29 00:49:07;;;;;;;10.15;9.35;;;4.50;94.10;;;;;;10549128;28;20231;-77
2023/01/29 00:54:09;;;;;;;10.10;9.30;;;4.60;94.30;;;;;;10540256;28;20187;-77
2023/01/29 00:59:12;;;;;;;10.48;9.68;;;4.70;94.10;;;;;;10545139;28;20587;-77
2023/01/29 01:04:14;;;;;;;9.13;8.53;;;4.70;94.50;;;;;;10571802;28;20574;-77
2023/01/29 01:14:42;;;;;;;9.23;8.53;;;4.60;93.80;;;;;;10544835;28;20206;-77
2023/01/29 01:19:44;;;;;;;10.03;9.13;;;4.60;93.70;;;;;;10549350;28;20596;-77
2023/01/29 01:24:46;;;;;;;8.90;8.20;;;4.50;94.20;;;;;;10543985;28;20639;-77
2023/01/29 01:29:49;;;;;;;9.93;9.00;;;4.50;93.90;;;;;;10549500;28;20225;-77
2023/01/29 01:34:52;;;;;;;10.27;9.40;;;4.40;93.90;;;;;;10523294;28;20230;-77
2023/01/29 01:39:56;;;;;;;10.07;9.27;;;4.40;94.20;;;;;;10569385;28;20244;-75
2023/01/29 01:45:04;;;;;;;8.97;8.20;;;4.60;94.00;;;;;;10555034;28;20201;-76
2023/01/29 01:50:10;;;;;;;9.43;8.63;;;4.60;93.90;;;;;;10579418;28;20267;-74
2023/01/29 01:55:14;;;;;;;9.37;8.67;;;4.50;93.90;;;;;;10530526;28;20203;-75
2023/01/29 02:00:19;;;;;;;9.10;8.40;;;4.50;93.90;;;;;;10554778;28;20605;-76
2023/01/29 02:10:43;;;;;;;10.17;9.37;;;4.40;94.20;;;;;;10562486;28;20666;-76
2023/01/29 02:15:47;;;;;;;9.57;8.60;;;4.40;94.10;;;;;;10540535;28;20222;-76
2023/01/29 02:21:00;;;;;;;9.60;8.97;;;4.40;93.80;;;;;;10562370;28;20219;-77
2023/01/29 02:26:25;;;;;;;9.95;9.05;;;4.30;93.40;;;;;;10544142;28;20204;-76
2023/01/29 02:31:34;;;;;;;9.47;8.67;;;4.40;93.80;;;;;;10556599;28;20560;-76
2023/01/29 02:36:45;;;;;;;11.37;8.87;;;4.40;93.40;;;;;;10523199;28;20205;-77
2023/01/29 02:41:56;;;;;;;9.83;9.03;;;4.40;93.50;;;;;;10563748;28;20222;-76
2023/01/29 02:47:03;;;;;;;10.13;9.40;;;4.30;93.60;;;;;;10543931;28;20658;-76
2023/01/29 02:52:13;;;;;;;10.23;9.30;;;4.40;94.00;;;;;;10524733;28;20239;-76
2023/01/29 02:57:19;;;;;;;9.27;8.57;;;4.30;93.90;;;;;;10561133;28;20667;-76
2023/01/29 03:02:30;;;;;;;9.13;8.43;;;4.30;93.60;;;;;;10551597;28;20610;-77
2023/01/29 03:07:43;;;;;;;9.80;9.00;;;4.30;92.40;;;;;;10560804;28;20231;-76
2023/01/29 03:12:58;;;;;;;9.30;8.60;;;4.20;92.60;;;;;;10544750;28;20203;-78
2023/01/29 03:18:08;;;;;;;9.70;8.90;;;4.10;93.10;;;;;;10519922;28;20541;-76
2023/01/29 03:23:16;;;;;;;9.37;8.57;;;4.10;93.70;;;;;;10577113;28;20239;-76
2023/01/29 03:33:47;;;;;;;9.57;8.67;;;4.10;94.10;;;;;;10538126;28;20195;-78
2023/01/29 03:38:49;;;;;;;8.90;8.20;;;4.10;93.70;;;;;;10575869;28;20223;-77
2023/01/29 03:43:57;;;;;;;9.00;8.23;;;4.10;93.10;;;;;;10540944;28;20254;-77
2023/01/29 03:49:11;;;;;;;9.30;8.50;;;4.20;93.70;;;;;;10565526;28;20223;-77
2023/01/29 03:54:25;;;;;;;8.77;8.17;;;4.10;93.50;;;;;;10574137;28;20647;-76
2023/01/29 03:59:36;;;;;;;10.50;9.70;;;4.10;93.00;;;;;;10538598;28;20224;-77
2023/01/29 04:05:18;;;;;;;9.83;8.93;;;4.10;92.30;;;;;;10531605;28;20231;-76
2023/01/29 04:10:36;;;;;;;9.17;8.40;;;4.00;93.20;;;;;;10567807;28;20301;-78
2023/01/29 04:15:45;;;;;;;9.20;8.60;;;4.00;93.60;;;;;;10564348;28;20203;-77
2023/01/29 04:20:49;;;;;;;9.33;8.63;;;4.00;93.50;;;;;;10566001;28;20251;-78
2023/01/29 04:26:05;;;;;;;9.47;8.70;;;4.00;93.20;;;;;;10528655;28;20192;-77
2023/01/29 04:31:11;;;;;;;8.50;7.87;;;4.00;93.10;;;;;;10545983;28;20214;-76
2023/01/29 04:36:26;;;;;;;9.50;8.60;;;4.00;93.20;;;;;;10560596;28;20225;-77
2023/01/29 04:41:34;;;;;;;8.68;8.07;;;4.00;93.10;;;;;;10546796;28;20674;-76
2023/01/29 04:46:44;;;;;;;8.67;8.17;;;4.20;93.40;;;;;;10561558;28;20818;-77
2023/01/29 04:51:56;;;;;;;8.67;8.03;;;4.20;93.00;;;;;;10565759;28;20710;-77
2023/01/29 04:57:06;;;;;;;9.00;8.33;;;4.20;93.20;;;;;;10578634;28;20210;-78
2023/01/29 05:02:11;;;;;;;9.50;8.73;;;4.10;93.60;;;;;;10569001;28;20219;-77
2023/01/29 05:07:17;;;;;;;8.27;7.53;;;4.10;93.20;;;;;;10537099;28;20199;-78
2023/01/29 05:12:19;;;;;;;8.80;8.10;;;4.20;92.10;;;;;;10556020;28;20264;-76
2023/01/29 05:17:21;;;;;;;8.67;7.97;;;4.20;92.40;;;;;;10590660;28;20199;-76
2023/01/29 05:22:25;;;;;;;9.50;8.70;;;4.10;92.30;;;;;;10564569;28;20227;-76
2023/01/29 05:32:51;;;;;;;10.00;9.20;;;3.90;93.00;;;;;;10561368;28;20204;-76
2023/01/29 05:37:54;;;;;;;9.23;8.47;;;3.90;91.70;;;;;;10557854;28;20191;-77
2023/01/29 05:42:56;;;;;;;8.60;7.90;;;3.90;92.80;;;;;;10561715;28;20220;-78
2023/01/29 05:47:59;;;;;;;9.05;8.35;;;3.90;93.30;;;;;;10579004;28;20284;-77
2023/01/29 05:53:03;;;;;;;11.07;10.03;;;4.00;93.40;;;;;;10561089;28;20247;-77
2023/01/29 05:58:05;;;;;;;10.60;9.70;;;4.10;93.00;;;;;;10555410;28;20199;-77
2023/01/29 06:03:07;;;;;;;9.65;8.85;;;4.20;92.30;;;;;;10548215;28;20222;-77
2023/01/29 06:08:10;;;;;;;9.85;8.98;;;4.30;91.40;;;;;;10553821;28;20231;-78
2023/01/29 06:13:12;;;;;;;10.20;9.30;;;4.30;92.70;;;;;;10561983;28;20681;-76
2023/01/29 06:18:14;;;;;;;11.07;10.17;;;4.30;92.80;;;;;;10582276;28;20213;-77
2023/01/29 06:23:18;;;;;;;9.63;8.90;;;4.10;92.40;;;;;;10539300;28;20211;-77
2023/01/29 06:28:20;;;;;;;9.68;8.98;;;4.00;92.00;;;;;;10565878;28;20204;-77
2023/01/29 06:33:22;;;;;;;11.30;10.40;;;4.10;92.70;;;;;;10565259;28;20233;-77
2023/01/29 06:38:26;;;;;;;11.17;10.17;;;4.10;92.80;;;;;;10559021;28;20202;-77
2023/01/29 06:43:28;;;;;;;10.47;9.67;;;4.00;92.60;;;;;;10564480;28;20246;-77
2023/01/29 06:48:31;;;;;;;9.93;9.13;;;4.00;93.10;;;;;;10579792;28;20203;-77
2023/01/29 06:53:36;;;;;;;9.83;9.03;;;4.00;92.70;;;;;;10559076;28;20665;-77
2023/01/29 06:58:38;;;;;;;11.00;10.10;;;4.00;91.80;;;;;;10535084;28;20681;-78
2023/01/29 07:03:40;;;;;;;9.43;8.63;;;3.90;92.40;;;;;;10566303;28;20242;-77
2023/01/29 07:08:43;;;;;;;9.90;8.90;;;4.00;93.20;;;;;;10541131;28;20256;-77
2023/01/29 07:13:45;;;;;;;10.27;9.47;;;4.00;92.80;;;;;;10580184;28;20199;-77
2023/01/29 07:18:47;;;;;;;10.87;9.97;;;4.00;93.20;;;;;;10581197;28;20245;-76
2023/01/29 07:23:51;;;;;;;9.73;8.93;;;4.00;93.00;;;;;;10546580;28;20222;-75
2023/01/29 07:28:53;;;;;;;10.90;9.90;;;4.00;92.50;;;;;;10577328;28;20325;-75
2023/01/29 07:33:55;;;;;;;9.55;8.65;;;3.90;92.70;;;;;;10563375;28;20282;-76
2023/01/29 07:38:58;;;;;;;10.30;9.50;;;4.10;92.50;;;;;;10542959;28;20711;-76
2023/01/29 07:44:00;;;;;;;10.90;10.00;;;4.20;92.80;;;;;;10576909;28;20740;-75
2023/01/29 07:49:02;;;;;;;10.10;9.30;;;4.20;92.70;;;;;;10540946;28;20226;-75
2023/01/29 07:54:06;;;;;;;10.83;9.80;;;4.10;92.60;;;;;;10560966;28;20558;-76
2023/01/29 07:59:08;;;;;;;10.40;9.40;;;4.10;92.90;;;;;;10561159;28;20226;-76
2023/01/29 08:04:10;;;;;;;9.53;8.73;;;4.10;92.10;;;;;;10566295;28;20237;-75
2023/01/29 08:09:13;;;;;;;9.77;8.97;;;4.10;92.90;;;;;;10561559;28;20243;-75
2023/01/29 08:14:15;;;;;;;10.80;9.90;;;4.20;92.60;;;;;;10542349;28;20554;-77
2023/01/29 08:19:17;;;;;;;15.88;9.57;;;4.20;92.20;;;;;;10579119;28;20243;-76
2023/01/29 08:24:21;;;;;;;11.20;10.10;;;4.30;92.60;;;;;;10555313;28;20301;-75
2023/01/29 08:29:23;;;;;;;10.77;9.97;;;4.40;91.50;;;;;;10561860;28;20220;-76
2023/01/29 08:34:25;;;;;;;11.77;10.83;;;4.40;92.50;;;;;;10577399;28;20666;-76
2023/01/29 08:39:28;;;;;;;11.55;10.50;;;4.40;92.60;;;;;;10544393;28;20598;-75
2023/01/29 08:44:30;;;;;;;10.80;9.80;;;4.50;92.70;;;;;;10564269;28;20217;-75
2023/01/29 08:49:32;;;;;;;10.93;10.00;;;4.60;91.30;;;;;;10577866;28;20210;-76
2023/01/29 08:54:36;;;;;;;10.70;9.80;;;4.50;91.00;;;;;;10550497;28;20287;-76
2023/01/29 08:59:38;;;;;;;10.43;9.40;;;4.50;90.40;;;;;;10577076;28;20575;-75
2023/01/29 09:04:40;;;;;;;10.07;9.27;;;4.40;91.60;;;;;;10569329;28;20241;-76
2023/01/29 09:09:43;;;;;;;11.40;10.40;;;4.40;91.20;;;;;;10547273;28;20238;-76
2023/01/29 09:14:45;;;;;;;11.90;10.70;;;4.40;91.90;;;;;;10568676;28;20191;-76
2023/01/29 09:19:47;;;;;;;11.17;10.37;;;4.40;91.80;;;;;;10575092;28;20695;-77
2023/01/29 09:24:51;;;;;;;13.93;12.43;;;4.40;92.00;;;;;;10538527;28;20258;-76
2023/01/29 09:29:53;;;;;;;12.50;11.37;;;4.50;91.80;;;;;;10547593;28;20229;-76
2023/01/29 09:34:55;;;;;;;14.13;11.00;;;4.60;91.20;;;;;;10567038;28;20196;-75
2023/01/29 09:39:58;;;;;;;11.00;9.90;;;4.70;90.30;;;;;;10573826;28;20227;-75
2023/01/29 09:45:05;;;;;;;12.03;11.13;;;4.50;90.50;;;;;;10546237;28;20219;-75
2023/01/29 09:50:14;;;;;;;11.03;10.10;;;4.40;91.40;;;;;;10572936;28;20785;-76
2023/01/29 09:55:22;;;;;;;12.67;10.97;;;4.40;90.90;;;;;;10546881;28;20229;-76
2023/01/29 10:00:32;;;;;;;14.23;12.80;;;4.50;90.70;;;;;;10577691;28;20723;-75
2023/01/29 10:05:48;;;;;;;18.33;16.43;;;4.40;91.20;;;;;;10583703;28;20247;-76
2023/01/29 10:10:59;;;;;;;13.50;12.30;;;4.50;90.40;;;;;;10579970;28;20605;-76
2023/01/29 10:16:16;;;;;;;12.40;11.27;;;4.80;90.50;;;;;;10586086;28;20268;-77
2023/01/29 10:21:51;;;;;;;13.10;12.00;;;5.00;90.20;;;;;;10554779;28;20215;-77
2023/01/29 10:26:55;;;;;;;13.43;12.23;;;5.00;89.30;;;;;;10565019;28;20192;-77
2023/01/29 10:32:03;;;;;;;13.00;11.80;;;5.10;89.20;;;;;;10578429;28;20226;-77
2023/01/29 10:37:17;;;;;;;13.87;12.67;;;5.10;90.30;;;;;;10566363;28;20211;-78
2023/01/29 10:42:28;;;;;;;14.37;13.07;;;5.20;90.60;;;;;;10530094;28;20231;-77
2023/01/29 10:47:58;;;;;;;12.57;11.47;;;5.40;90.30;;;;;;10574426;28;20210;-78
2023/01/29 10:53:16;;;;;;;14.63;13.33;;;5.50;90.40;;;;;;10570734;28;20564;-78
2023/01/29 10:58:29;;;;;;;13.20;12.20;;;5.50;90.30;;;;;;10587639;28;20187;-78
2023/01/29 11:03:33;;;;;;;13.53;12.27;;;5.60;90.20;;;;;;10562896;28;20547;-78
2023/01/29 11:08:41;;;;;;;12.77;11.67;;;5.70;90.90;;;;;;10575657;28;20195;-79
2023/01/29 11:13:50;;;;;;;12.37;11.27;;;5.70;89.70;;;;;;10582331;28;20200;-77
2023/01/29 11:18:58;;;;;;;17.47;15.97;;;5.70;87.40;;;;;;10586801;28;20230;-77
2023/01/29 11:24:11;;;;;;;15.03;13.70;;;5.60;89.60;;;;;;10583238;28;20309;-78
2023/01/29 11:29:45;;;;;;;12.67;11.67;;;5.70;90.20;;;;;;10535476;28;20634;-77
2023/01/29 11:35:00;;;;;;;13.85;12.63;;;5.80;89.40;;;;;;10445509;28;20203;-76
2023/01/29 11:40:22;;;;;;;12.15;11.20;;;6.00;87.70;;;;;;10579144;28;20281;-77
2023/01/29 11:45:32;;;;;;;12.57;11.50;;;6.10;87.80;;;;;;10549493;28;20215;-77
2023/01/29 11:50:34;;;;;;;12.60;11.40;;;6.00;88.90;;;;;;10574814;28;20215;-77
2023/01/29 11:55:37;;;;;;;13.10;11.90;;;5.90;87.10;;;;;;10578502;28;20241;-77
2023/01/29 12:00:45;;;;;;;12.02;11.02;;;5.80;89.20;;;;;;10576222;28;20228;-77
2023/01/29 12:05:55;;;;;;;12.97;11.67;;;6.00;90.10;;;;;;10541702;28;20238;-76
2023/01/29 12:11:09;;;;;;;12.20;11.20;;;6.10;90.00;;;;;;10553412;28;20207;-77
2023/01/29 12:16:22;;;;;;;16.87;12.60;;;6.20;88.00;;;;;;10556839;28;20524;-75
2023/01/29 12:21:32;;;;;;;13.23;12.13;;;6.10;86.20;;;;;;10552751;28;20248;-76
2023/01/29 12:26:38;;;;;;;13.53;12.40;;;5.80;87.60;;;;;;10576317;28;20261;-76
2023/01/29 12:31:50;;;;;;;12.90;11.70;;;5.60;86.30;;;;;;10550607;28;20311;-75
2023/01/29 12:36:59;;;;;;;36.33;31.63;;;5.40;89.60;;;;;;10557621;28;20694;-75
2023/01/29 12:42:04;;;;;;;14.27;12.73;;;5.40;90.40;;;;;;10549573;28;20220;-76
2023/01/29 12:47:14;;;;;;;14.20;13.00;;;5.50;89.90;;;;;;10571515;28;20195;-76
2023/01/29 12:52:22;;;;;;;15.20;13.80;;;5.60;89.60;;;;;;10554403;28;20218;-77
2023/01/29 12:57:32;;;;;;;13.70;12.60;;;5.60;88.40;;;;;;10558094;28;20222;-77
2023/01/29 13:02:40;;;;;;;14.63;13.43;;;5.60;89.30;;;;;;10539658;28;20697;-76
2023/01/29 13:07:46;;;;;;;13.43;12.30;;;5.50;90.50;;;;;;10558562;28;20234;-77
2023/01/29 13:12:54;;;;;;;13.85;12.65;;;5.70;90.60;;;;;;10559372;28;20475;-78
2023/01/29 13:18:02;;;;;;;12.67;11.57;;;6.00;90.20;;;;;;10557377;28;20206;-77
2023/01/29 13:23:16;;;;;;;13.33;12.13;;;6.00;89.90;;;;;;10554727;28;20706;-77
2023/01/29 13:28:21;;;;;;;13.50;12.30;;;6.10;90.10;;;;;;10551910;28;20204;-78
2023/01/29 13:33:24;;;;;;;12.77;11.77;;;6.10;89.50;;;;;;10561779;28;20227;-78
2023/01/29 13:38:31;;;;;;;13.10;12.00;;;5.90;87.50;;;;;;10551584;28;20635;-76
2023/01/29 13:43:37;;;;;;;13.07;11.97;;;5.80;89.10;;;;;;10566518;22;20263;-80
2023/01/29 13:48:45;;;;;;;12.57;11.37;;;5.70;90.40;;;;;;10509553;28;20286;-79
2023/01/29 13:53:58;;;;;;;13.60;12.40;;;5.80;89.40;;;;;;10522103;28;20381;-79
2023/01/29 13:59:01;;;;;;;13.10;12.00;;;5.80;90.30;;;;;;10511166;28;20260;-79
2023/01/29 14:04:24;;;;;;;12.97;11.83;;;5.90;90.80;;;;;;10536750;28;20312;-81
2023/01/29 14:09:59;;;;;;;13.73;12.53;;;6.00;89.60;;;;;;10498000;28;20216;-81
2023/01/29 14:15:24;;;;;;;13.20;12.10;;;6.00;90.20;;;;;;10423447;28;20582;-79
2023/01/29 14:20:32;;;;;;;13.43;12.13;;;6.10;90.00;;;;;;10484822;28;20228;-80
2023/01/29 14:25:38;;;;;;;13.67;12.37;;;6.00;90.00;;;;;;10485804;28;20589;-78
2023/01/29 14:30:47;;;;;;;13.35;12.15;;;6.00;88.10;;;;;;10491942;28;20214;-79
2023/01/29 14:35:55;;;;;;;14.20;12.90;;;6.10;90.00;;;;;;10508123;28;20192;-81
2023/01/29 14:41:23;;;;;;;14.43;13.13;;;6.10;86.90;;;;;;10500384;28;20690;-79
2023/01/29 14:46:43;;;;;;;14.40;13.10;;;5.90;87.30;;;;;;10509809;28;20221;-79
2023/01/29 14:51:48;;;;;;;12.47;11.40;;;6.00;89.70;;;;;;10504378;28;20227;-79
2023/01/29 14:56:58;;;;;;;13.83;12.63;;;5.90;90.10;;;;;;10520260;28;20197;-79
2023/01/29 15:02:06;;;;;;;15.43;13.80;;;5.70;88.80;;;;;;10507606;28;20319;-81
2023/01/29 15:07:25;;;;;;;13.10;11.90;;;5.60;87.60;;;;;;10465410;28;20231;-79
2023/01/29 15:12:32;;;;;;;14.07;12.77;;;5.50;90.00;;;;;;10511621;28;20216;-79
2023/01/29 15:17:41;;;;;;;13.67;12.40;;;5.40;90.50;;;;;;10510270;28;20299;-80
2023/01/29 15:22:44;;;;;;;13.75;12.55;;;5.30;90.80;;;;;;10526718;28;20220;-79
2023/01/29 15:27:47;;;;;;;14.68;13.18;;;5.50;91.00;;;;;;10499583;28;20618;-80
2023/01/29 15:32:52;;;;;;;14.47;12.90;;;5.70;90.30;;;;;;10512737;28;20211;-79
2023/01/29 15:38:04;;;;;;;14.57;13.27;;;5.60;91.00;;;;;;10537255;28;20197;-80
2023/01/29 15:43:20;;;;;;;14.13;12.73;;;5.50;90.90;;;;;;10493830;28;20216;-78
2023/01/29 15:48:40;;;;;;;15.30;13.90;;;5.40;91.00;;;;;;10515935;28;20202;-79
2023/01/29 15:53:56;;;;;;;15.17;13.73;;;5.30;91.30;;;;;;10473655;28;20208;-81
2023/01/29 15:59:01;;;;;;;15.37;13.67;;;5.20;91.70;;;;;;10480952;28;20212;-82
2023/01/29 16:04:03;;;;;;;15.60;14.00;;;5.10;92.00;;;;;;10494160;28;20296;-81
2023/01/29 16:09:10;;;;;;;15.07;13.67;;;5.10;90.70;;;;;;10503698;28;20211;-79
2023/01/29 16:14:14;;;;;;;15.00;13.47;;;5.00;91.10;;;;;;10519349;28;20271;-79
2023/01/29 16:19:23;;;;;;;14.10;12.80;;;4.80;91.00;;;;;;10532952;28;20214;-78
2023/01/29 16:24:29;;;;;;;16.53;14.73;;;4.70;91.20;;;;;;10495593;28;20211;-78
2023/01/29 16:29:34;;;;;;;15.90;14.40;;;4.60;91.40;;;;;;10478297;28;20223;-78
2023/01/29 16:34:37;;;;;;;18.03;16.17;;;4.30;91.90;;;;;;10495085;28;20220;-77
2023/01/29 16:39:46;;;;;;;15.53;14.13;;;4.10;92.00;;;;;;10475308;28;20228;-77
2023/01/29 16:44:52;;;;;;;15.70;13.90;;;3.90;92.30;;;;;;10461064;28;20284;-83
2023/01/29 16:49:56;;;;;;;16.43;14.80;;;3.90;92.50;;;;;;10480229;28;20854;-80
2023/01/29 16:55:19;;;;;;;19.30;17.40;;;3.90;92.30;;;;;;10483875;28;20257;-80
2023/01/29 17:00:25;;;;;;;21.00;18.97;;;3.70;92.70;;;;;;10523850;28;20245;-76
2023/01/29 17:05:30;;;;;;;17.40;15.70;;;3.60;92.80;;;;;;10493994;28;20627;-80
2023/01/29 17:10:34;;;;;;;16.80;15.00;;;3.50;93.10;;;;;;10438917;28;20244;-80
2023/01/29 17:15:44;;;;;;;20.50;16.30;;;3.40;93.20;;;;;;10541165;28;20196;-79
2023/01/29 17:20:47;;;;;;;26.23;21.80;;;3.30;93.00;;;;;;10491091;28;20615;-80
2023/01/29 17:25:51;;;;;;;22.33;20.07;;;3.30;93.10;;;;;;10473694;28;20220;-80
2023/01/29 17:30:53;;;;;;;30.43;26.70;;;3.30;93.50;;;;;;10508547;28;20234;-79
2023/01/29 17:35:55;;;;;;;20.70;18.50;;;3.20;93.60;;;;;;10498897;28;20191;-80
2023/01/29 17:41:02;;;;;;;19.60;17.63;;;3.20;93.80;;;;;;10453436;28;20705;-78
2023/01/29 17:46:04;;;;;;;22.40;20.17;;;3.10;93.90;;;;;;10443505;28;20220;-78
2023/01/29 17:51:15;;;;;;;25.17;22.57;;;3.20;94.00;;;;;;10471514;28;20275;-78
2023/01/29 17:56:26;;;;;;;24.77;22.10;;;3.20;93.70;;;;;;10503784;28;20276;-79
2023/01/29 18:01:28;;;;;;;54.53;40.40;;;3.10;93.80;;;;;;10547326;28;20698;-79
2023/01/29 18:06:30;;;;;;;23.50;21.30;;;3.00;93.70;;;;;;10468933;28;20236;-80
2023/01/29 18:11:34;;;;;;;21.03;18.93;;;3.00;94.10;;;;;;10484777;28;20221;-80
2023/01/29 18:16:38;;;;;;;21.13;19.13;;;2.90;94.10;;;;;;10512247;28;20200;-78
2023/01/29 18:21:40;;;;;;;21.63;19.40;;;2.90;94.30;;;;;;10496635;28;20224;-76
2023/01/29 18:26:43;;;;;;;24.73;22.27;;;2.90;94.30;;;;;;10522531;28;20295;-77
2023/01/29 18:31:49;;;;;;;20.33;18.53;;;2.80;94.20;;;;;;10540133;28;20295;-78
2023/01/29 18:36:51;;;;;;;19.10;17.07;;;2.80;94.30;;;;;;10510141;28;20199;-80
2023/01/29 18:41:56;;;;;;;21.10;19.00;;;2.80;94.40;;;;;;10505661;28;20236;-80
2023/01/29 18:46:58;;;;;;;16.27;14.60;;;2.90;94.60;;;;;;10475177;28;20235;-79
2023/01/29 18:52:00;;;;;;;17.25;15.63;;;2.90;94.50;;;;;;10492604;28;20251;-78
2023/01/29 18:57:05;;;;;;;16.23;14.60;;;3.00;94.60;;;;;;10513191;28;20205;-80
2023/01/29 19:02:07;;;;;;;17.40;15.70;;;3.00;94.40;;;;;;10519974;28;20687;-77
2023/01/29 19:07:14;;;;;;;16.95;15.23;;;2.90;94.40;;;;;;10490179;28;20221;-80
2023/01/29 19:12:17;;;;;;;18.00;16.17;;;3.00;94.50;;;;;;10508667;28;20217;-78
2023/01/29 19:17:20;;;;;;;18.23;16.50;;;3.10;94.50;;;;;;10516986;28;20591;-78
2023/01/29 19:22:22;;;;;;;16.40;14.80;;;3.10;94.70;;;;;;10489174;28;20223;-77
2023/01/29 19:27:29;;;;;;;19.07;17.17;;;2.90;94.60;;;;;;10450516;28;20618;-78
2023/01/29 19:32:31;;;;;;;18.83;17.07;;;2.90;94.90;;;;;;10453787;28;20210;-77
2023/01/29 19:37:34;;;;;;;16.97;15.47;;;2.80;95.00;;;;;;10465511;28;20185;-77
2023/01/29 19:42:39;;;;;;;19.45;17.60;;;2.70;94.70;;;;;;10488963;23;20232;-77
2023/01/29 19:47:43;;;;;;;24.37;21.80;;;2.80;94.80;;;;;;10505569;28;20247;-78
2023/01/29 19:52:46;;;;;;;29.20;26.10;;;2.80;94.70;;;;;;10529375;28;20220;-77
2023/01/29 19:57:52;;;;;;;20.40;18.50;;;2.70;94.90;;;;;;10529874;28;20196;-77
2023/01/29 20:02:54;;;;;;;23.50;21.20;;;2.60;94.80;;;;;;10541737;28;20219;-76
2023/01/29 20:07:56;;;;;;;19.60;17.90;;;2.50;95.00;;;;;;10532698;28;20212;-78
2023/01/29 20:13:03;;;;;;;18.70;16.90;;;2.40;95.00;;;;;;10515305;28;20251;-79
2023/01/29 20:18:10;;;;;;;18.70;17.00;;;2.40;94.90;;;;;;10516431;28;20195;-77
2023/01/29 20:23:14;;;;;;;21.00;18.90;;;2.30;94.90;;;;;;10517724;28;20232;-78
2023/01/29 20:28:18;;;;;;;18.87;16.80;;;2.20;95.20;;;;;;10476692;28;20251;-79
2023/01/29 20:33:25;;;;;;;19.98;17.98;;;2.20;95.30;;;;;;10494017;28;20244;-78
2023/01/29 20:38:30;;;;;;;18.93;17.03;;;2.30;95.20;;;;;;10498201;28;20235;-78
2023/01/29 20:43:33;;;;;;;17.90;16.00;;;2.40;94.80;;;;;;10466563;28;20236;-80
2023/01/29 20:48:36;;;;;;;17.83;15.90;;;2.20;95.30;;;;;;10452442;28;20703;-78
2023/01/29 20:53:39;;;;;;;18.90;17.00;;;2.20;95.00;;;;;;10449781;28;20230;-78
2023/01/29 20:58:43;;;;;;;17.33;15.73;;;2.00;95.20;;;;;;10466454;28;20200;-78
2023/01/29 21:03:46;;;;;;;19.10;17.20;;;1.90;95.50;;;;;;10450985;28;20321;-80
2023/01/29 21:08:48;;;;;;;18.43;16.53;;;1.80;95.80;;;;;;10460012;28;20649;-78
2023/01/29 21:13:56;;;;;;;22.37;20.07;;;1.70;96.00;;;;;;10461728;28;20248;-78
2023/01/29 21:18:58;;;;;;;17.27;15.57;;;1.80;96.30;;;;;;10456325;28;20205;-77
2023/01/29 21:24:00;;;;;;;17.20;15.50;;;1.90;96.90;;;;;;10447350;28;20221;-78
2023/01/29 21:29:05;;;;;;;20.73;18.53;;;2.00;96.90;;;;;;10421898;28;20288;-78
2023/01/29 21:34:07;;;;;;;22.40;20.10;;;2.10;96.80;;;;;;10475343;28;20704;-77
2023/01/29 21:39:16;;;;;;;19.33;17.45;;;2.20;96.50;;;;;;10478324;28;20302;-77
2023/01/29 21:44:19;;;;;;;20.23;18.30;;;2.50;96.40;;;;;;10475675;28;20228;-78
2023/01/29 21:49:22;;;;;;;20.73;18.07;;;2.60;96.20;;;;;;10452132;28;20198;-79
2023/01/29 21:54:29;;;;;;;20.40;18.30;;;2.60;95.90;;;;;;10472614;28;20288;-77
2023/01/29 21:59:33;;;;;;;21.03;18.83;;;2.60;95.20;;;;;;10511499;28;20216;-78
2023/01/29 22:04:35;;;;;;;19.95;17.88;;;2.50;95.60;;;;;;10483665;28;20266;-78
2023/01/29 22:09:37;;;;;;;20.30;18.20;;;2.60;95.80;;;;;;10512166;28;20308;-78
2023/01/29 22:14:41;;;;;;;20.90;18.77;;;2.60;95.70;;;;;;10476681;28;20213;-77
2023/01/29 22:19:43;;;;;;;19.47;17.50;;;2.60;94.80;;;;;;10491862;28;20283;-78
2023/01/29 22:24:45;;;;;;;20.87;18.77;;;2.50;95.30;;;;;;10486571;28;20239;-78
2023/01/29 22:29:49;;;;;;;30.13;20.40;;;2.40;95.20;;;;;;10483606;28;20226;-77
2023/01/29 22:34:51;;;;;;;24.30;20.43;;;2.30;95.90;;;;;;10481194;28;20313;-78
2023/01/29 22:39:53;;;;;;;19.03;17.23;;;2.40;95.80;;;;;;10492224;28;20454;-78
2023/01/29 22:44:56;;;;;;;19.27;17.27;;;2.40;95.70;;;;;;10549411;28;20212;-78
2023/01/29 22:49:58;;;;;;;20.57;18.37;;;2.40;95.00;;;;;;10543751;28;20223;-78
2023/01/29 22:55:00;;;;;;;18.67;16.70;;;2.30;95.00;;;;;;10540262;28;20234;-77
2023/01/29 23:00:05;;;;;;;18.37;16.57;;;2.30;95.00;;;;;;10528503;28;20220;-78
2023/01/29 23:05:08;;;;;;;15.50;14.00;;;2.30;94.60;;;;;;10527340;28;20671;-77
2023/01/29 23:10:13;;;;;;;14.47;13.10;;;2.10;94.90;;;;;;10512752;28;20228;-79
2023/01/29 23:15:17;;;;;;;18.00;16.15;;;1.90;95.00;;;;;;10548643;28;20546;-78
2023/01/29 23:20:20;;;;;;;15.10;13.70;;;1.90;95.10;;;;;;10534789;28;20225;-77
2023/01/29 23:27:13;;;;;;;16.50;14.93;;;1.80;95.20;;;;;;10539311;28;20216;-78
2023/01/29 23:30:46;;;;;;;15.83;14.23;;;1.70;95.50;;;;;;10529265;28;20254;-78
2023/01/29 23:35:48;;;;;;;17.80;15.43;;;1.70;95.70;;;;;;10525432;28;20633;-79
2023/01/29 23:40:50;;;;;;;19.50;17.10;;;1.70;96.00;;;;;;10527650;28;20319;-77
2023/01/29 23:45:54;;;;;;;18.53;16.63;;;1.70;96.50;;;;;;10523598;28;20212;-77
2023/01/29 23:50:56;;;;;;;16.90;15.20;;;1.80;96.50;;;;;;10520421;28;20219;-77
2023/01/29 23:56:00;;;;;;;19.17;17.13;;;1.90;96.50;;;;;;10527816;28;20560;-76
